Terminal Aerodrome Forecast
Issued by NWS Dallas/Fort Worth, TX

Home | Current Version | Previous Version | Text Only | Print | Product List | Glossary On
Versions: 1 2 3 4 5 6 7 8 9 10 11 12 13 14 15 16 17 18 19 20 21 22 23 24 25 26 27 28 29
000
FTUS44 KFWD 051455 AAA
TAFACT
TAF AMD
KACT 051455Z 0515/0612 14013KT P6SM BKN015
     FM051700 15015KT P6SM BKN025
     FM051900 16016KT P6SM BKN040
     FM052300 15015KT P6SM VCSH BKN040
     FM060400 16016KT P6SM BKN016=

USA.gov is the U.S. government's official web portal to all federal, state and local government web resources and services.